Time;durP1;ratioP1;P1;durP2;ratioP2;P2;SDS_P1;SDS_P2;PMS_P1;PMS_P2;Temp;Humidity;BMP_temperature;BMP_pressure;BME280_temperature;BME280_humidity;BME280_pressure;Samples;Min_cycle;Max_cycle;Signal;HPM_P1;HPM_P2
2023/10/08 00:00:39;;;;;;;2.85;1.77;;;;;;;19.80;98.35;101950.38;20868258;28;20080;-66
2023/10/08 00:10:26;;;;;;;2.47;1.50;;;;;;;19.75;97.94;101955.28;20871090;28;20053;-66
2023/10/08 00:20:35;;;;;;;3.20;1.60;;;;;;;19.68;97.61;101944.09;20867758;28;20048;-67
2023/10/08 00:30:41;;;;;;;2.08;1.20;;;;;;;19.59;97.55;101972.69;20881840;28;20126;-66
2023/10/08 00:40:46;;;;;;;1.27;0.90;;;;;;;19.51;97.13;102002.16;20866612;28;20245;-66
2023/10/08 00:50:47;;;;;;;1.45;1.10;;;;;;;19.45;97.00;101981.91;20884035;28;20102;-67
2023/10/08 01:00:52;;;;;;;1.40;1.00;;;;;;;19.41;96.59;101940.78;20881450;28;20493;-66
2023/10/08 01:11:00;;;;;;;1.55;1.10;;;;;;;19.37;96.33;101960.91;20864752;28;20130;-67
2023/10/08 01:21:17;;;;;;;1.45;0.90;;;;;;;19.31;96.31;102006.41;20881746;28;20053;-66
2023/10/08 01:31:20;;;;;;;1.33;0.80;;;;;;;19.26;96.03;101990.56;20880197;28;20048;-66
2023/10/08 01:41:30;;;;;;;0.65;0.65;;;;;;;19.26;95.02;102004.91;20878144;28;20041;-66
2023/10/08 01:51:39;;;;;;;1.25;0.52;;;;;;;19.29;94.61;101998.44;20879346;28;20048;-67
2023/10/08 02:01:41;;;;;;;1.55;0.82;;;;;;;19.27;94.39;102054.41;20876939;28;20410;-66
2023/10/08 02:11:53;;;;;;;0.57;0.40;;;;;;;19.21;94.24;102042.22;20877935;28;20052;-67
2023/10/08 02:21:55;;;;;;;1.20;0.50;;;;;;;19.24;94.04;102033.88;20876300;28;20528;-67
2023/10/08 02:31:58;;;;;;;0.73;0.68;;;;;;;19.21;93.99;102069.22;20876460;28;20049;-66
2023/10/08 02:42:01;;;;;;;0.40;0.40;;;;;;;19.19;93.63;102063.06;20856665;28;20049;-67
2023/10/08 02:52:04;;;;;;;0.80;0.32;;;;;;;19.18;93.38;102068.56;20855905;28;20106;-66
2023/10/08 03:02:13;;;;;;;0.63;0.60;;;;;;;19.16;93.40;102093.00;20836765;28;20580;-66
2023/10/08 03:12:16;;;;;;;1.17;0.40;;;;;;;19.13;93.15;102083.28;20804990;28;20127;-66
2023/10/08 03:22:19;;;;;;;0.20;0.20;;;;;;;19.13;93.07;102101.31;20810988;28;20522;-66
2023/10/08 03:32:26;;;;;;;0.90;0.30;;;;;;;19.12;92.78;102061.81;20772122;28;20582;-67
2023/10/08 03:42:34;;;;;;;0.22;0.20;;;;;;;19.10;92.36;102070.00;20788720;28;20060;-66
2023/10/08 03:52:39;;;;;;;0.95;0.30;;;;;;;19.09;92.22;102105.25;20802615;28;20560;-67
2023/10/08 04:02:46;;;;;;;0.22;0.22;;;;;;;19.07;92.23;102126.94;20878230;28;20561;-67
2023/10/08 04:12:50;;;;;;;0.20;0.20;;;;;;;19.05;92.07;102157.72;20885662;28;20049;-66
2023/10/08 04:22:52;;;;;;;0.50;0.22;;;;;;;19.03;91.73;102165.91;20885970;28;20048;-66
2023/10/08 04:32:53;;;;;;;0.13;0.13;;;;;;;19.01;91.46;102161.63;20885022;28;20048;-66
2023/10/08 04:42:57;;;;;;;0.38;0.35;;;;;;;18.98;91.51;102160.84;20865707;28;20040;-66
2023/10/08 04:52:59;;;;;;;0.20;0.20;;;;;;;18.96;91.30;102197.84;20883805;28;20053;-66
2023/10/08 05:03:10;;;;;;;0.82;0.40;;;;;;;18.96;91.28;102202.41;20857545;28;20099;-66
2023/10/08 05:13:16;;;;;;;0.43;0.20;;;;;;;18.93;91.16;102189.97;20870793;28;20059;-66
2023/10/08 05:33:38;;;;;;;0.38;0.20;;;;;;;18.90;91.22;102176.72;20799047;28;20145;-66
2023/10/08 05:53:44;;;;;;;0.57;0.32;;;;;;;18.82;91.37;102201.56;20837612;28;20049;-66
2023/10/08 06:04:00;;;;;;;0.40;0.22;;;;;;;18.83;91.16;102197.03;20838712;28;20041;-66
2023/10/08 06:14:28;;;;;;;0.80;0.20;;;;;;;18.86;93.31;102250.75;20838666;28;20103;-66
2023/10/08 06:24:33;;;;;;;1.15;0.45;;;;;;;18.80;96.03;102224.22;20831509;28;20045;-66
2023/10/08 06:34:35;;;;;;;1.35;0.45;;;;;;;18.76;95.64;102265.88;20819361;28;20056;-66
2023/10/08 06:44:38;;;;;;;1.45;0.47;;;;;;;18.75;95.70;102283.06;20829563;28;20061;-66
2023/10/08 06:54:40;;;;;;;1.30;0.60;;;;;;;18.79;94.88;102265.66;20831780;28;20062;-67
2023/10/08 07:04:43;;;;;;;1.30;0.40;;;;;;;18.84;94.02;102267.09;20822469;28;20053;-67
2023/10/08 07:14:46;;;;;;;1.50;0.47;;;;;;;18.87;93.92;102252.50;20824075;28;20135;-66
2023/10/08 07:24:51;;;;;;;0.90;0.30;;;;;;;18.78;93.52;102250.47;20827548;28;20048;-67
2023/10/08 07:34:57;;;;;;;0.85;0.30;;;;;;;18.88;93.59;102329.78;20824083;28;20957;-67
2023/10/08 07:44:59;;;;;;;0.98;0.40;;;;;;;19.02;92.89;102334.22;20813179;28;20052;-65
2023/10/08 07:55:05;;;;;;;4.40;0.43;;;;;;;19.08;92.86;102323.00;20773898;28;20056;-66
2023/10/08 08:05:07;;;;;;;0.43;0.32;;;;;;;19.22;93.68;102296.84;20807420;28;20677;-66
2023/10/08 08:15:14;;;;;;;2.60;0.57;;;;;;;19.38;93.03;102288.47;20787019;28;20049;-65
2023/10/08 08:25:26;;;;;;;1.85;0.70;;;;;;;19.45;91.82;102278.97;20768384;28;20056;-66
2023/10/08 08:35:28;;;;;;;1.75;0.43;;;;;;;19.48;91.03;102384.09;20787644;28;20059;-65
2023/10/08 08:45:33;;;;;;;0.80;0.30;;;;;;;19.54;92.22;102428.69;20779969;28;20045;-67
2023/10/08 08:55:35;;;;;;;3.92;0.70;;;;;;;19.73;91.07;102425.53;20801654;28;20052;-69
2023/10/08 09:05:40;;;;;;;8.90;1.40;;;;;;;19.88;90.34;102415.44;20802009;28;20413;-67
2023/10/08 09:15:42;;;;;;;1.63;0.60;;;;;;;20.03;89.56;102409.91;20790111;28;20053;-69
2023/10/08 09:25:49;;;;;;;6.07;0.52;;;;;;;20.18;88.25;102421.41;20793393;28;20057;-70
2023/10/08 09:35:55;;;;;;;1.92;0.82;;;;;;;20.19;86.97;102374.47;20786874;28;20060;-69
2023/10/08 09:46:19;;;;;;;2.30;0.80;;;;;;;20.35;85.72;102380.47;20799775;28;20124;-69
2023/10/08 09:56:22;;;;;;;1.73;0.77;;;;;;;20.47;84.14;102404.84;20786134;28;20062;-67
2023/10/08 10:06:24;;;;;;;2.70;0.75;;;;;;;20.61;83.15;102423.59;20795239;28;20048;-70
2023/10/08 10:16:26;;;;;;;1.35;0.50;;;;;;;20.78;81.71;102399.78;20784537;28;20050;-70
2023/10/08 10:26:30;;;;;;;2.42;0.73;;;;;;;20.79;80.51;102382.59;20795124;28;20413;-70
2023/10/08 10:36:33;;;;;;;2.80;0.68;;;;;;;20.87;79.51;102385.56;20784089;28;20044;-70
2023/10/08 10:46:41;;;;;;;1.40;0.65;;;;;;;20.89;79.13;102385.44;20792294;28;20050;-70
2023/10/08 10:56:44;;;;;;;2.22;0.95;;;;;;;20.83;79.49;102392.19;20776013;28;20120;-70
2023/10/08 11:06:48;;;;;;;1.17;0.53;;;;;;;20.85;79.39;102371.28;20788625;28;20126;-71
2023/10/08 11:16:50;;;;;;;1.83;0.55;;;;;;;20.92;78.59;102359.00;20776813;28;20049;-70
2023/10/08 11:27:06;;;;;;;1.95;0.80;;;;;;;20.92;77.55;102326.50;20778525;28;20489;-70
2023/10/08 11:37:19;;;;;;;3.97;0.70;;;;;;;20.96;77.44;102318.97;20781265;28;20049;-69
2023/10/08 11:47:22;;;;;;;1.45;0.63;;;;;;;21.06;77.06;102332.66;20787069;28;20053;-70
2023/10/08 11:57:25;;;;;;;1.17;0.52;;;;;;;21.20;76.32;102308.03;20778936;28;20157;-67
2023/10/08 12:07:27;;;;;;;0.80;0.43;;;;;;;21.27;75.80;102282.19;20797866;28;20049;-67
2023/10/08 12:17:39;;;;;;;1.60;0.80;;;;;;;21.30;75.38;102306.31;20808658;28;20617;-68
2023/10/08 12:27:41;;;;;;;1.73;0.70;;;;;;;21.34;74.78;102301.50;20808674;28;20556;-68
2023/10/08 12:37:44;;;;;;;0.95;0.50;;;;;;;21.33;74.30;102301.63;20818993;28;20057;-68
2023/10/08 12:47:50;;;;;;;1.33;0.70;;;;;;;21.26;74.23;102298.56;20848609;28;20041;-67
2023/10/08 12:57:55;;;;;;;1.10;0.50;;;;;;;21.27;74.41;102300.28;20824033;28;20059;-67
2023/10/08 13:08:03;;;;;;;2.20;0.60;;;;;;;21.18;74.18;102280.22;20823458;28;20152;-67
2023/10/08 13:18:05;;;;;;;1.92;0.63;;;;;;;21.21;74.38;102280.00;20805327;28;20045;-68
2023/10/08 13:28:09;;;;;;;1.55;0.55;;;;;;;21.18;74.54;102285.63;20810910;28;20170;-68
2023/10/08 13:38:13;;;;;;;0.97;0.70;;;;;;;21.14;74.37;102295.88;20796444;28;20846;-67
2023/10/08 13:48:15;;;;;;;1.33;0.63;;;;;;;21.11;74.33;102284.41;20808617;28;20047;-67
2023/10/08 13:58:18;;;;;;;1.83;0.75;;;;;;;21.07;74.21;102288.34;20805031;28;20045;-67
2023/10/08 14:08:22;;;;;;;1.98;0.50;;;;;;;21.00;73.97;102293.41;20811504;28;20068;-69
2023/10/08 14:18:28;;;;;;;2.13;0.60;;;;;;;20.90;74.29;102258.09;20810373;28;20461;-69
2023/10/08 14:28:52;;;;;;;1.60;0.50;;;;;;;20.93;74.26;102262.38;20818301;28;20049;-67
2023/10/08 14:49:15;;;;;;;2.70;0.63;;;;;;;20.92;74.66;102220.94;20811381;28;20056;-67
2023/10/08 14:59:18;;;;;;;1.65;1.00;;;;;;;20.91;75.37;102213.78;20800073;28;20146;-67
2023/10/08 15:09:23;;;;;;;3.33;1.50;;;;;;;20.91;80.24;102202.09;20790150;28;20048;-71
2023/10/08 15:19:25;;;;;;;2.03;0.90;;;;;;;21.05;81.68;102192.84;20790789;28;20049;-67
2023/10/08 15:29:29;;;;;;;1.88;0.70;;;;;;;21.11;82.78;102189.63;20828013;28;20501;-67
2023/10/08 15:39:31;;;;;;;1.90;0.90;;;;;;;21.13;82.69;102152.47;20806131;28;20059;-67
2023/10/08 15:49:33;;;;;;;2.45;0.80;;;;;;;21.09;82.18;102151.88;20789129;28;20053;-67
2023/10/08 15:59:36;;;;;;;2.08;0.60;;;;;;;20.94;81.96;102145.88;20790117;28;20167;-67
2023/10/08 16:09:41;;;;;;;4.07;1.02;;;;;;;20.82;82.64;102133.34;20782789;28;20138;-70
2023/10/08 16:19:42;;;;;;;2.47;1.00;;;;;;;20.68;84.83;102110.94;20806205;28;20057;-69
2023/10/08 16:29:44;;;;;;;3.90;1.20;;;;;;;20.60;84.64;102113.41;20820816;28;20056;-69
2023/10/08 16:39:46;;;;;;;3.90;0.88;;;;;;;20.60;84.40;102121.53;20818567;28;20052;-68
2023/10/08 16:49:48;;;;;;;1.55;1.23;;;;;;;20.58;84.26;102115.38;20777456;28;1107808;-69
2023/10/08 16:59:50;;;;;;;1.80;0.70;;;;;;;20.56;84.00;102118.22;20806326;28;20060;-69
2023/10/08 17:09:51;;;;;;;1.75;0.90;;;;;;;20.45;83.83;102111.97;20825554;28;20053;-70
2023/10/08 17:19:54;;;;;;;2.58;0.98;;;;;;;20.47;83.52;102126.22;20869143;28;20187;-69
2023/10/08 17:29:55;;;;;;;2.30;0.95;;;;;;;20.40;83.57;102113.19;20838778;28;20751;-69
2023/10/08 17:39:58;;;;;;;3.92;1.00;;;;;;;20.23;84.12;102116.38;20878583;28;20056;-69
2023/10/08 17:49:59;;;;;;;2.35;1.10;;;;;;;20.07;84.43;102095.97;20876783;28;20049;-70
2023/10/08 18:00:07;;;;;;;3.55;1.38;;;;;;;19.95;84.82;102076.19;20844594;28;20351;-70
2023/10/08 18:10:14;;;;;;;2.58;1.00;;;;;;;19.87;84.92;102054.28;20878686;28;20052;-70
2023/10/08 18:20:19;;;;;;;3.40;1.33;;;;;;;19.81;85.08;102036.69;20875260;28;20048;-70
2023/10/08 18:30:21;;;;;;;1.85;0.95;;;;;;;19.78;85.56;102028.00;20867152;28;20049;-70
2023/10/08 18:40:24;;;;;;;5.22;3.05;;;;;;;19.73;85.92;102020.22;20846497;28;20064;-70
2023/10/08 18:50:26;;;;;;;2.60;1.23;;;;;;;19.75;91.42;102023.66;20858176;28;20565;-70
2023/10/08 19:00:28;;;;;;;2.38;1.30;;;;;;;19.68;91.61;102008.94;20833926;28;20056;-70
2023/10/08 19:10:30;;;;;;;2.42;1.45;;;;;;;19.62;91.03;101990.50;20857596;28;20048;-69
2023/10/08 19:20:37;;;;;;;2.53;1.10;;;;;;;19.59;90.59;101956.47;20832375;28;20037;-70
2023/10/08 19:30:41;;;;;;;2.33;1.30;;;;;;;19.55;90.06;101923.47;20834478;28;20539;-70
2023/10/08 19:40:43;;;;;;;3.97;1.20;;;;;;;19.52;89.61;101896.72;20854872;28;20055;-70
2023/10/08 19:50:46;;;;;;;5.40;1.85;;;;;;;19.50;89.01;101890.56;20850591;28;20106;-70
2023/10/08 20:00:49;;;;;;;2.58;1.10;;;;;;;19.40;88.81;101868.84;20823393;28;20505;-70
2023/10/08 20:10:52;;;;;;;2.42;1.10;;;;;;;19.46;88.22;101886.41;20871745;28;20136;-70
2023/10/08 20:20:54;;;;;;;1.95;1.10;;;;;;;19.47;87.48;101873.75;20871403;28;20071;-69
2023/10/08 20:30:56;;;;;;;1.65;0.93;;;;;;;19.45;87.30;101846.00;20870341;28;20056;-70
2023/10/08 20:41:00;;;;;;;2.17;1.40;;;;;;;19.44;86.76;101826.22;20871070;28;20055;-70
2023/10/08 20:51:03;;;;;;;2.57;1.13;;;;;;;19.41;86.22;101796.78;20868141;28;20052;-70
2023/10/08 21:01:06;;;;;;;2.88;1.10;;;;;;;19.42;85.90;101825.50;20884888;28;20049;-70
2023/10/08 21:11:13;;;;;;;2.58;1.30;;;;;;;19.40;85.75;101811.25;20884166;28;20423;-70
2023/10/08 21:21:18;;;;;;;1.08;0.90;;;;;;;19.36;85.03;101807.09;20882671;28;20053;-70
2023/10/08 21:31:20;;;;;;;1.80;1.00;;;;;;;19.32;84.96;101797.53;20879633;28;20051;-70
2023/10/08 21:41:22;;;;;;;1.08;0.80;;;;;;;19.26;85.06;101793.50;20863718;28;20049;-70
2023/10/08 21:51:24;;;;;;;2.10;1.13;;;;;;;19.27;84.81;101793.38;20881122;28;20060;-70
2023/10/08 22:01:27;;;;;;;2.05;0.95;;;;;;;19.25;84.92;101787.22;20879929;28;20140;-70
2023/10/08 22:11:29;;;;;;;1.20;0.90;;;;;;;19.25;84.75;101767.50;20879404;28;20561;-69
2023/10/08 22:21:34;;;;;;;3.00;1.10;;;;;;;19.24;84.42;101750.41;20878266;28;20087;-70
2023/10/08 22:31:39;;;;;;;1.42;1.15;;;;;;;19.24;84.40;101742.31;20860516;28;20065;-70
2023/10/08 22:41:43;;;;;;;1.47;1.00;;;;;;;19.22;84.22;101698.41;20876274;28;20056;-70
2023/10/08 22:51:46;;;;;;;;;;;;;;;19.22;84.08;101728.09;20796864;28;20136;-70
2023/10/08 23:01:48;;;;;;;1.77;1.10;;;;;;;19.19;83.92;101679.75;20793150;28;20369;-70
2023/10/08 23:11:53;;;;;;;1.48;0.90;;;;;;;19.19;84.19;101673.47;20791822;28;20115;-70
2023/10/08 23:21:56;;;;;;;1.60;1.20;;;;;;;19.17;84.01;101652.03;20792048;28;20038;-70
2023/10/08 23:31:58;;;;;;;3.17;0.95;;;;;;;19.20;83.85;101637.41;20865177;28;20052;-70
2023/10/08 23:42:23;;;;;;;1.20;1.00;;;;;;;19.22;83.61;101614.72;20872084;28;20417;-70
2023/10/08 23:52:24;;;;;;;1.87;1.03;;;;;;;19.20;83.43;101629.31;20872530;28;20053;-70
